sensor_id;sensor_type;location;lat;lon;timestamp;temperature;humidity
57552;DHT22;43379;48.160;14.036;2022-10-22T00:01:41;12.80;99.90
57552;DHT22;43379;48.160;14.036;2022-10-22T00:04:07;12.80;99.90
57552;DHT22;43379;48.160;14.036;2022-10-22T00:06:33;12.80;99.90
57552;DHT22;43379;48.160;14.036;2022-10-22T00:08:59;12.80;99.90
57552;DHT22;43379;48.160;14.036;2022-10-22T00:11:24;12.80;99.90
57552;DHT22;43379;48.160;14.036;2022-10-22T00:13:50;12.80;99.90
57552;DHT22;43379;48.160;14.036;2022-10-22T00:16:16;12.80;99.90
57552;DHT22;43379;48.160;14.036;2022-10-22T00:18:41;12.80;99.90
57552;DHT22;43379;48.160;14.036;2022-10-22T00:21:07;12.70;99.90
57552;DHT22;43379;48.160;14.036;2022-10-22T00:23:34;12.70;99.90
57552;DHT22;43379;48.160;14.036;2022-10-22T00:25:59;12.70;99.90
57552;DHT22;43379;48.160;14.036;2022-10-22T00:28:25;12.80;99.90
57552;DHT22;43379;48.160;14.036;2022-10-22T00:30:58;12.80;99.90
57552;DHT22;43379;48.160;14.036;2022-10-22T00:33:25;12.70;99.90
57552;DHT22;43379;48.160;14.036;2022-10-22T00:35:51;12.70;99.90
57552;DHT22;43379;48.160;14.036;2022-10-22T00:38:17;12.70;99.90
57552;DHT22;43379;48.160;14.036;2022-10-22T00:40:42;12.70;99.90
57552;DHT22;43379;48.160;14.036;2022-10-22T00:43:13;12.70;99.90
57552;DHT22;43379;48.160;14.036;2022-10-22T00:45:39;12.80;99.90
57552;DHT22;43379;48.160;14.036;2022-10-22T00:48:09;12.70;99.90
57552;DHT22;43379;48.160;14.036;2022-10-22T00:51:00;12.70;99.90
57552;DHT22;43379;48.160;14.036;2022-10-22T00:53:42;12.70;99.90
57552;DHT22;43379;48.160;14.036;2022-10-22T00:56:09;12.70;99.90
57552;DHT22;43379;48.160;14.036;2022-10-22T00:58:38;12.80;99.90
57552;DHT22;43379;48.160;14.036;2022-10-22T01:01:08;12.80;99.90
57552;DHT22;43379;48.160;14.036;2022-10-22T01:03:36;12.80;99.90
57552;DHT22;43379;48.160;14.036;2022-10-22T01:06:04;12.80;99.90
57552;DHT22;43379;48.160;14.036;2022-10-22T01:17:05;12.80;99.90
57552;DHT22;43379;48.160;14.036;2022-10-22T01:30:06;12.60;99.90
57552;DHT22;43379;48.160;14.036;2022-10-22T01:32:41;12.60;99.90
57552;DHT22;43379;48.160;14.036;2022-10-22T01:35:10;12.60;99.90
57552;DHT22;43379;48.160;14.036;2022-10-22T01:37:43;12.50;99.90
57552;DHT22;43379;48.160;14.036;2022-10-22T01:40:11;12.50;99.90
57552;DHT22;43379;48.160;14.036;2022-10-22T01:42:38;12.50;99.90
57552;DHT22;43379;48.160;14.036;2022-10-22T01:45:10;12.50;99.90
57552;DHT22;43379;48.160;14.036;2022-10-22T01:53:20;12.40;99.90
57552;DHT22;43379;48.160;14.036;2022-10-22T01:56:11;12.40;99.90
57552;DHT22;43379;48.160;14.036;2022-10-22T01:58:57;12.40;99.90
57552;DHT22;43379;48.160;14.036;2022-10-22T02:01:46;12.30;99.90
57552;DHT22;43379;48.160;14.036;2022-10-22T02:04:30;12.30;99.90
57552;DHT22;43379;48.160;14.036;2022-10-22T02:07:02;12.30;99.90
57552;DHT22;43379;48.160;14.036;2022-10-22T02:09:30;12.40;99.90
57552;DHT22;43379;48.160;14.036;2022-10-22T02:11:58;12.40;99.90
57552;DHT22;43379;48.160;14.036;2022-10-22T02:14:24;12.40;99.90
57552;DHT22;43379;48.160;14.036;2022-10-22T02:16:52;12.50;99.90
57552;DHT22;43379;48.160;14.036;2022-10-22T02:19:26;12.40;99.90
57552;DHT22;43379;48.160;14.036;2022-10-22T02:21:53;12.40;99.90
57552;DHT22;43379;48.160;14.036;2022-10-22T02:24:19;12.40;99.90
57552;DHT22;43379;48.160;14.036;2022-10-22T02:29:51;12.30;99.90
57552;DHT22;43379;48.160;14.036;2022-10-22T02:32:21;12.30;99.90
57552;DHT22;43379;48.160;14.036;2022-10-22T02:34:50;12.30;99.90
57552;DHT22;43379;48.160;14.036;2022-10-22T02:37:17;12.30;99.90
57552;DHT22;43379;48.160;14.036;2022-10-22T02:39:44;12.30;99.90
57552;DHT22;43379;48.160;14.036;2022-10-22T02:42:10;12.30;99.90
57552;DHT22;43379;48.160;14.036;2022-10-22T02:44:37;12.30;99.90
57552;DHT22;43379;48.160;14.036;2022-10-22T02:47:03;12.30;99.90
57552;DHT22;43379;48.160;14.036;2022-10-22T02:49:28;12.20;99.90
57552;DHT22;43379;48.160;14.036;2022-10-22T02:51:54;12.20;99.90
57552;DHT22;43379;48.160;14.036;2022-10-22T02:54:20;12.20;99.90
57552;DHT22;43379;48.160;14.036;2022-10-22T02:56:45;12.20;99.90
57552;DHT22;43379;48.160;14.036;2022-10-22T02:59:11;12.20;99.90
57552;DHT22;43379;48.160;14.036;2022-10-22T03:01:37;12.20;99.90
57552;DHT22;43379;48.160;14.036;2022-10-22T03:04:03;12.10;99.90
57552;DHT22;43379;48.160;14.036;2022-10-22T03:06:28;12.10;99.90
57552;DHT22;43379;48.160;14.036;2022-10-22T03:08:54;12.10;99.90
57552;DHT22;43379;48.160;14.036;2022-10-22T03:11:20;12.20;99.90
57552;DHT22;43379;48.160;14.036;2022-10-22T03:13:45;12.20;99.90
57552;DHT22;43379;48.160;14.036;2022-10-22T03:16:11;12.20;99.90
57552;DHT22;43379;48.160;14.036;2022-10-22T03:18:37;12.20;99.90
57552;DHT22;43379;48.160;14.036;2022-10-22T03:23:57;12.20;99.90
57552;DHT22;43379;48.160;14.036;2022-10-22T03:26:24;12.20;99.90
57552;DHT22;43379;48.160;14.036;2022-10-22T03:28:50;12.10;99.90
57552;DHT22;43379;48.160;14.036;2022-10-22T03:31:16;12.10;99.90
57552;DHT22;43379;48.160;14.036;2022-10-22T03:33:41;12.10;99.90
57552;DHT22;43379;48.160;14.036;2022-10-22T03:36:08;12.20;99.90
57552;DHT22;43379;48.160;14.036;2022-10-22T03:38:36;12.20;99.90
57552;DHT22;43379;48.160;14.036;2022-10-22T03:41:02;12.20;99.90
57552;DHT22;43379;48.160;14.036;2022-10-22T03:43:28;12.20;99.90
57552;DHT22;43379;48.160;14.036;2022-10-22T03:45:53;12.20;99.90
57552;DHT22;43379;48.160;14.036;2022-10-22T03:48:19;12.10;99.90
57552;DHT22;43379;48.160;14.036;2022-10-22T03:50:45;12.10;99.90
57552;DHT22;43379;48.160;14.036;2022-10-22T03:53:10;12.00;99.90
57552;DHT22;43379;48.160;14.036;2022-10-22T03:55:39;12.00;99.90
57552;DHT22;43379;48.160;14.036;2022-10-22T03:58:04;12.10;99.90
57552;DHT22;43379;48.160;14.036;2022-10-22T04:00:31;12.10;99.90
57552;DHT22;43379;48.160;14.036;2022-10-22T04:02:56;12.10;99.90
57552;DHT22;43379;48.160;14.036;2022-10-22T04:05:22;12.00;99.90
57552;DHT22;43379;48.160;14.036;2022-10-22T04:07:48;12.10;99.90
57552;DHT22;43379;48.160;14.036;2022-10-22T04:10:14;12.10;99.90
57552;DHT22;43379;48.160;14.036;2022-10-22T04:12:39;12.20;99.90
57552;DHT22;43379;48.160;14.036;2022-10-22T04:15:05;12.10;99.90
57552;DHT22;43379;48.160;14.036;2022-10-22T04:17:35;12.20;99.90
57552;DHT22;43379;48.160;14.036;2022-10-22T04:20:01;12.20;99.90
57552;DHT22;43379;48.160;14.036;2022-10-22T04:22:27;12.20;99.90
57552;DHT22;43379;48.160;14.036;2022-10-22T04:24:53;12.20;99.90
57552;DHT22;43379;48.160;14.036;2022-10-22T04:27:19;12.20;99.90
57552;DHT22;43379;48.160;14.036;2022-10-22T04:29:44;12.20;99.90
57552;DHT22;43379;48.160;14.036;2022-10-22T04:32:10;12.20;99.90
57552;DHT22;43379;48.160;14.036;2022-10-22T04:34:36;12.20;99.90
57552;DHT22;43379;48.160;14.036;2022-10-22T04:37:01;12.10;99.90
57552;DHT22;43379;48.160;14.036;2022-10-22T04:39:27;12.20;99.90
57552;DHT22;43379;48.160;14.036;2022-10-22T04:41:53;12.10;99.90
57552;DHT22;43379;48.160;14.036;2022-10-22T04:44:19;12.20;99.90
57552;DHT22;43379;48.160;14.036;2022-10-22T04:46:44;12.20;99.90
57552;DHT22;43379;48.160;14.036;2022-10-22T04:49:10;12.20;99.90
57552;DHT22;43379;48.160;14.036;2022-10-22T04:51:36;12.20;99.90
57552;DHT22;43379;48.160;14.036;2022-10-22T04:54:01;12.20;99.90
57552;DHT22;43379;48.160;14.036;2022-10-22T04:56:29;12.20;99.90
57552;DHT22;43379;48.160;14.036;2022-10-22T04:59:00;12.10;99.90
57552;DHT22;43379;48.160;14.036;2022-10-22T05:01:29;12.10;99.90
57552;DHT22;43379;48.160;14.036;2022-10-22T05:03:57;12.20;99.90
57552;DHT22;43379;48.160;14.036;2022-10-22T05:06:24;12.20;99.90
57552;DHT22;43379;48.160;14.036;2022-10-22T05:09:11;12.20;99.90
57552;DHT22;43379;48.160;14.036;2022-10-22T05:11:38;12.30;99.90
57552;DHT22;43379;48.160;14.036;2022-10-22T05:14:06;12.30;99.90
57552;DHT22;43379;48.160;14.036;2022-10-22T05:16:33;12.30;99.90
57552;DHT22;43379;48.160;14.036;2022-10-22T05:19:00;12.30;99.90
57552;DHT22;43379;48.160;14.036;2022-10-22T05:21:26;12.30;99.90
57552;DHT22;43379;48.160;14.036;2022-10-22T05:23:52;12.30;99.90
57552;DHT22;43379;48.160;14.036;2022-10-22T05:26:20;12.30;99.90
57552;DHT22;43379;48.160;14.036;2022-10-22T05:28:47;12.30;99.90
57552;DHT22;43379;48.160;14.036;2022-10-22T05:31:14;12.30;99.90
57552;DHT22;43379;48.160;14.036;2022-10-22T05:33:41;12.30;99.90
57552;DHT22;43379;48.160;14.036;2022-10-22T05:36:08;12.30;99.90
57552;DHT22;43379;48.160;14.036;2022-10-22T05:38:35;12.30;99.90
57552;DHT22;43379;48.160;14.036;2022-10-22T05:41:03;12.30;99.90
57552;DHT22;43379;48.160;14.036;2022-10-22T05:43:29;12.40;99.90
57552;DHT22;43379;48.160;14.036;2022-10-22T05:45:55;12.40;99.90
57552;DHT22;43379;48.160;14.036;2022-10-22T05:48:21;12.40;99.90
57552;DHT22;43379;48.160;14.036;2022-10-22T05:50:46;12.50;99.90
57552;DHT22;43379;48.160;14.036;2022-10-22T05:53:16;12.50;99.90
57552;DHT22;43379;48.160;14.036;2022-10-22T05:55:43;12.60;99.90
57552;DHT22;43379;48.160;14.036;2022-10-22T05:58:11;12.60;99.90
57552;DHT22;43379;48.160;14.036;2022-10-22T06:00:37;12.70;99.90
57552;DHT22;43379;48.160;14.036;2022-10-22T06:03:03;12.70;99.90
57552;DHT22;43379;48.160;14.036;2022-10-22T06:05:28;12.80;99.90
57552;DHT22;43379;48.160;14.036;2022-10-22T06:07:55;12.80;99.90
57552;DHT22;43379;48.160;14.036;2022-10-22T06:10:21;12.80;99.90
57552;DHT22;43379;48.160;14.036;2022-10-22T06:12:47;12.90;99.90
57552;DHT22;43379;48.160;14.036;2022-10-22T06:15:15;12.90;99.90
57552;DHT22;43379;48.160;14.036;2022-10-22T06:17:43;13.00;99.90
57552;DHT22;43379;48.160;14.036;2022-10-22T06:20:10;13.00;99.90
57552;DHT22;43379;48.160;14.036;2022-10-22T06:22:36;13.10;99.90
57552;DHT22;43379;48.160;14.036;2022-10-22T06:25:03;13.10;99.90
57552;DHT22;43379;48.160;14.036;2022-10-22T06:27:28;13.20;99.90
57552;DHT22;43379;48.160;14.036;2022-10-22T06:29:54;13.20;99.90
57552;DHT22;43379;48.160;14.036;2022-10-22T06:32:19;13.20;99.90
57552;DHT22;43379;48.160;14.036;2022-10-22T06:34:45;13.30;99.90
57552;DHT22;43379;48.160;14.036;2022-10-22T06:37:12;13.30;99.90
57552;DHT22;43379;48.160;14.036;2022-10-22T06:39:39;13.30;99.90
57552;DHT22;43379;48.160;14.036;2022-10-22T06:42:05;13.30;99.90
57552;DHT22;43379;48.160;14.036;2022-10-22T06:44:31;13.40;99.90
57552;DHT22;43379;48.160;14.036;2022-10-22T06:46:57;13.40;99.90
57552;DHT22;43379;48.160;14.036;2022-10-22T06:49:23;13.40;99.90
57552;DHT22;43379;48.160;14.036;2022-10-22T06:51:50;13.40;99.90
57552;DHT22;43379;48.160;14.036;2022-10-22T06:54:16;13.40;99.90
57552;DHT22;43379;48.160;14.036;2022-10-22T06:56:41;13.40;99.90
57552;DHT22;43379;48.160;14.036;2022-10-22T06:59:07;13.50;99.90
57552;DHT22;43379;48.160;14.036;2022-10-22T07:01:34;13.60;99.90
57552;DHT22;43379;48.160;14.036;2022-10-22T07:04:00;13.60;99.90
57552;DHT22;43379;48.160;14.036;2022-10-22T07:06:27;13.70;99.90
57552;DHT22;43379;48.160;14.036;2022-10-22T07:08:54;13.80;99.90
57552;DHT22;43379;48.160;14.036;2022-10-22T07:11:23;13.80;99.90
57552;DHT22;43379;48.160;14.036;2022-10-22T07:13:49;13.90;99.90
57552;DHT22;43379;48.160;14.036;2022-10-22T07:16:16;13.90;99.90
57552;DHT22;43379;48.160;14.036;2022-10-22T07:18:43;13.90;99.90
57552;DHT22;43379;48.160;14.036;2022-10-22T07:21:11;14.00;99.90
57552;DHT22;43379;48.160;14.036;2022-10-22T07:23:37;14.00;99.90
57552;DHT22;43379;48.160;14.036;2022-10-22T07:26:04;14.10;99.90
57552;DHT22;43379;48.160;14.036;2022-10-22T07:28:32;14.20;99.90
57552;DHT22;43379;48.160;14.036;2022-10-22T07:30:58;14.20;99.90
57552;DHT22;43379;48.160;14.036;2022-10-22T07:33:24;14.20;99.90
57552;DHT22;43379;48.160;14.036;2022-10-22T07:35:50;14.30;99.90
57552;DHT22;43379;48.160;14.036;2022-10-22T07:38:21;14.40;99.90
57552;DHT22;43379;48.160;14.036;2022-10-22T07:40:47;14.40;99.90
57552;DHT22;43379;48.160;14.036;2022-10-22T07:43:13;14.40;99.90
57552;DHT22;43379;48.160;14.036;2022-10-22T07:45:38;14.40;99.90
57552;DHT22;43379;48.160;14.036;2022-10-22T07:48:06;14.50;99.90
57552;DHT22;43379;48.160;14.036;2022-10-22T07:50:32;14.50;99.90
57552;DHT22;43379;48.160;14.036;2022-10-22T07:52:57;14.60;99.90
57552;DHT22;43379;48.160;14.036;2022-10-22T07:55:23;14.60;99.90
57552;DHT22;43379;48.160;14.036;2022-10-22T07:57:49;14.70;99.90
57552;DHT22;43379;48.160;14.036;2022-10-22T08:00:15;14.70;99.90
57552;DHT22;43379;48.160;14.036;2022-10-22T08:02:40;14.70;99.90
57552;DHT22;43379;48.160;14.036;2022-10-22T08:05:06;14.80;99.90
57552;DHT22;43379;48.160;14.036;2022-10-22T08:07:32;14.90;99.90
57552;DHT22;43379;48.160;14.036;2022-10-22T08:09:58;14.90;99.90
57552;DHT22;43379;48.160;14.036;2022-10-22T08:12:24;14.90;99.90
57552;DHT22;43379;48.160;14.036;2022-10-22T08:14:49;14.90;99.90
57552;DHT22;43379;48.160;14.036;2022-10-22T08:17:15;15.00;99.90
57552;DHT22;43379;48.160;14.036;2022-10-22T08:19:41;15.00;99.90
57552;DHT22;43379;48.160;14.036;2022-10-22T08:22:06;15.00;99.90
57552;DHT22;43379;48.160;14.036;2022-10-22T08:24:32;15.10;99.90
57552;DHT22;43379;48.160;14.036;2022-10-22T08:26:58;15.10;99.90
57552;DHT22;43379;48.160;14.036;2022-10-22T08:29:24;15.10;99.90
57552;DHT22;43379;48.160;14.036;2022-10-22T08:31:51;15.20;99.90
57552;DHT22;43379;48.160;14.036;2022-10-22T08:34:17;15.20;99.90
57552;DHT22;43379;48.160;14.036;2022-10-22T08:36:43;15.20;99.90
57552;DHT22;43379;48.160;14.036;2022-10-22T08:39:09;15.20;99.90
57552;DHT22;43379;48.160;14.036;2022-10-22T08:41:47;15.30;99.90
57552;DHT22;43379;48.160;14.036;2022-10-22T08:47:12;15.40;99.90
57552;DHT22;43379;48.160;14.036;2022-10-22T08:49:40;15.40;99.90
57552;DHT22;43379;48.160;14.036;2022-10-22T08:52:15;15.40;99.90
57552;DHT22;43379;48.160;14.036;2022-10-22T08:55:00;15.50;99.90
57552;DHT22;43379;48.160;14.036;2022-10-22T08:57:54;15.50;99.90
57552;DHT22;43379;48.160;14.036;2022-10-22T09:00:35;15.50;99.90
57552;DHT22;43379;48.160;14.036;2022-10-22T09:03:30;15.50;99.90
57552;DHT22;43379;48.160;14.036;2022-10-22T09:06:12;15.50;99.90
57552;DHT22;43379;48.160;14.036;2022-10-22T09:08:39;15.50;99.90
57552;DHT22;43379;48.160;14.036;2022-10-22T09:11:23;15.50;99.90
57552;DHT22;43379;48.160;14.036;2022-10-22T09:13:50;15.50;99.90
57552;DHT22;43379;48.160;14.036;2022-10-22T09:19:05;15.50;99.90
57552;DHT22;43379;48.160;14.036;2022-10-22T09:27:15;15.60;99.90
57552;DHT22;43379;48.160;14.036;2022-10-22T09:29:42;15.60;99.90
57552;DHT22;43379;48.160;14.036;2022-10-22T09:32:08;15.60;99.90
57552;DHT22;43379;48.160;14.036;2022-10-22T09:34:33;15.60;99.90
57552;DHT22;43379;48.160;14.036;2022-10-22T09:37:01;15.70;99.90
57552;DHT22;43379;48.160;14.036;2022-10-22T09:39:31;15.70;99.90
57552;DHT22;43379;48.160;14.036;2022-10-22T09:41:57;15.70;99.90
57552;DHT22;43379;48.160;14.036;2022-10-22T09:44:23;15.70;99.90
57552;DHT22;43379;48.160;14.036;2022-10-22T09:46:49;15.70;99.90
57552;DHT22;43379;48.160;14.036;2022-10-22T09:49:18;15.70;99.90
57552;DHT22;43379;48.160;14.036;2022-10-22T09:51:54;15.80;99.90
57552;DHT22;43379;48.160;14.036;2022-10-22T09:54:41;15.80;99.90
57552;DHT22;43379;48.160;14.036;2022-10-22T09:57:16;15.80;99.90
57552;DHT22;43379;48.160;14.036;2022-10-22T09:59:43;15.80;99.90
57552;DHT22;43379;48.160;14.036;2022-10-22T10:02:14;15.80;99.90
57552;DHT22;43379;48.160;14.036;2022-10-22T10:04:46;15.70;99.90
57552;DHT22;43379;48.160;14.036;2022-10-22T10:07:31;15.70;99.90
57552;DHT22;43379;48.160;14.036;2022-10-22T10:09:57;15.70;99.90
57552;DHT22;43379;48.160;14.036;2022-10-22T10:13:06;15.80;99.90
57552;DHT22;43379;48.160;14.036;2022-10-22T10:15:37;15.70;99.90
57552;DHT22;43379;48.160;14.036;2022-10-22T10:21:08;15.70;99.90
57552;DHT22;43379;48.160;14.036;2022-10-22T10:23:45;15.80;99.90
57552;DHT22;43379;48.160;14.036;2022-10-22T10:26:27;15.80;99.90
57552;DHT22;43379;48.160;14.036;2022-10-22T10:37:29;15.70;99.90
57552;DHT22;43379;48.160;14.036;2022-10-22T10:43:09;15.70;99.90
57552;DHT22;43379;48.160;14.036;2022-10-22T10:51:19;15.80;99.90
57552;DHT22;43379;48.160;14.036;2022-10-22T11:07:45;16.00;99.90
57552;DHT22;43379;48.160;14.036;2022-10-22T11:12:47;16.00;99.90
57552;DHT22;43379;48.160;14.036;2022-10-22T11:18:09;16.10;99.90
57552;DHT22;43379;48.160;14.036;2022-10-22T11:20:46;16.10;99.90
57552;DHT22;43379;48.160;14.036;2022-10-22T11:23:17;16.10;99.90
57552;DHT22;43379;48.160;14.036;2022-10-22T11:25:48;16.10;99.90
57552;DHT22;43379;48.160;14.036;2022-10-22T11:28:25;16.20;99.90
57552;DHT22;43379;48.160;14.036;2022-10-22T11:30:59;16.20;99.90
57552;DHT22;43379;48.160;14.036;2022-10-22T11:33:31;16.20;99.90
57552;DHT22;43379;48.160;14.036;2022-10-22T11:35:58;16.20;99.90
57552;DHT22;43379;48.160;14.036;2022-10-22T11:38:26;16.20;99.90
57552;DHT22;43379;48.160;14.036;2022-10-22T11:41:04;16.10;99.90
57552;DHT22;43379;48.160;14.036;2022-10-22T11:43:34;16.10;99.90
57552;DHT22;43379;48.160;14.036;2022-10-22T11:48:40;16.10;99.90
57552;DHT22;43379;48.160;14.036;2022-10-22T11:51:45;16.10;99.90
57552;DHT22;43379;48.160;14.036;2022-10-22T11:59:55;16.10;99.90
57552;DHT22;43379;48.160;14.036;2022-10-22T12:04:55;16.20;99.90
57552;DHT22;43379;48.160;14.036;2022-10-22T12:07:55;16.20;99.90
57552;DHT22;43379;48.160;14.036;2022-10-22T12:10:26;16.20;99.90
57552;DHT22;43379;48.160;14.036;2022-10-22T12:12:57;16.20;99.90
57552;DHT22;43379;48.160;14.036;2022-10-22T12:15:25;16.30;99.90
57552;DHT22;43379;48.160;14.036;2022-10-22T12:18:04;16.30;99.90
57552;DHT22;43379;48.160;14.036;2022-10-22T12:20:30;16.40;99.90
57552;DHT22;43379;48.160;14.036;2022-10-22T12:22:57;16.40;99.90
57552;DHT22;43379;48.160;14.036;2022-10-22T12:25:29;16.50;99.90
57552;DHT22;43379;48.160;14.036;2022-10-22T12:27:58;16.50;99.90
57552;DHT22;43379;48.160;14.036;2022-10-22T12:30:28;16.60;99.90
57552;DHT22;43379;48.160;14.036;2022-10-22T12:32:56;16.60;99.90
57552;DHT22;43379;48.160;14.036;2022-10-22T12:35:28;16.60;99.90
57552;DHT22;43379;48.160;14.036;2022-10-22T12:37:56;16.60;99.90
57552;DHT22;43379;48.160;14.036;2022-10-22T12:40:27;16.60;99.90
57552;DHT22;43379;48.160;14.036;2022-10-22T12:42:59;16.70;99.90
57552;DHT22;43379;48.160;14.036;2022-10-22T12:45:29;16.70;99.90
57552;DHT22;43379;48.160;14.036;2022-10-22T12:47:58;16.70;99.90
57552;DHT22;43379;48.160;14.036;2022-10-22T12:50:38;16.80;99.90
57552;DHT22;43379;48.160;14.036;2022-10-22T12:56:00;16.80;99.90
57552;DHT22;43379;48.160;14.036;2022-10-22T12:58:31;16.90;99.90
57552;DHT22;43379;48.160;14.036;2022-10-22T13:00:59;16.90;99.90
57552;DHT22;43379;48.160;14.036;2022-10-22T13:03:35;16.90;99.90
57552;DHT22;43379;48.160;14.036;2022-10-22T13:06:32;17.00;99.90
57552;DHT22;43379;48.160;14.036;2022-10-22T13:09:13;17.00;99.90
57552;DHT22;43379;48.160;14.036;2022-10-22T13:11:48;17.10;99.90
57552;DHT22;43379;48.160;14.036;2022-10-22T13:14:29;17.20;99.90
57552;DHT22;43379;48.160;14.036;2022-10-22T13:19:42;17.30;99.90
57552;DHT22;43379;48.160;14.036;2022-10-22T13:24:51;17.30;99.90
57552;DHT22;43379;48.160;14.036;2022-10-22T13:27:17;17.30;99.90
57552;DHT22;43379;48.160;14.036;2022-10-22T13:29:43;17.30;99.90
57552;DHT22;43379;48.160;14.036;2022-10-22T13:32:26;17.30;99.90
57552;DHT22;43379;48.160;14.036;2022-10-22T13:34:55;17.40;99.90
57552;DHT22;43379;48.160;14.036;2022-10-22T13:37:21;17.40;99.90
57552;DHT22;43379;48.160;14.036;2022-10-22T13:39:47;17.40;99.90
57552;DHT22;43379;48.160;14.036;2022-10-22T13:42:12;17.40;99.90
57552;DHT22;43379;48.160;14.036;2022-10-22T13:44:38;17.40;99.90
57552;DHT22;43379;48.160;14.036;2022-10-22T13:47:23;17.40;99.90
57552;DHT22;43379;48.160;14.036;2022-10-22T13:49:50;17.50;99.90
57552;DHT22;43379;48.160;14.036;2022-10-22T13:52:26;17.50;99.90
57552;DHT22;43379;48.160;14.036;2022-10-22T13:54:52;17.50;99.90
57552;DHT22;43379;48.160;14.036;2022-10-22T13:57:18;17.50;99.90
57552;DHT22;43379;48.160;14.036;2022-10-22T13:59:43;17.50;99.90
57552;DHT22;43379;48.160;14.036;2022-10-22T14:02:11;17.50;99.90
57552;DHT22;43379;48.160;14.036;2022-10-22T14:04:39;17.40;99.90
57552;DHT22;43379;48.160;14.036;2022-10-22T14:07:15;17.40;99.90
57552;DHT22;43379;48.160;14.036;2022-10-22T14:09:42;17.50;99.90
57552;DHT22;43379;48.160;14.036;2022-10-22T14:12:17;17.50;99.90
57552;DHT22;43379;48.160;14.036;2022-10-22T14:14:42;17.60;99.90
57552;DHT22;43379;48.160;14.036;2022-10-22T14:17:11;17.60;99.90
57552;DHT22;43379;48.160;14.036;2022-10-22T14:19:42;17.70;99.90
57552;DHT22;43379;48.160;14.036;2022-10-22T14:22:18;17.70;99.90
57552;DHT22;43379;48.160;14.036;2022-10-22T14:24:44;17.80;99.90
57552;DHT22;43379;48.160;14.036;2022-10-22T14:27:12;17.80;99.90
57552;DHT22;43379;48.160;14.036;2022-10-22T14:29:39;17.90;99.90
57552;DHT22;43379;48.160;14.036;2022-10-22T14:32:25;17.90;99.90
57552;DHT22;43379;48.160;14.036;2022-10-22T14:34:51;17.90;99.90
57552;DHT22;43379;48.160;14.036;2022-10-22T14:37:18;17.90;99.90
57552;DHT22;43379;48.160;14.036;2022-10-22T14:39:45;17.90;99.90
57552;DHT22;43379;48.160;14.036;2022-10-22T14:42:16;17.90;99.90
57552;DHT22;43379;48.160;14.036;2022-10-22T14:44:42;17.80;99.90
57552;DHT22;43379;48.160;14.036;2022-10-22T14:47:08;17.80;99.90
57552;DHT22;43379;48.160;14.036;2022-10-22T14:49:34;17.80;99.90
57552;DHT22;43379;48.160;14.036;2022-10-22T14:51:59;17.90;99.90
57552;DHT22;43379;48.160;14.036;2022-10-22T14:54:25;17.90;99.90
57552;DHT22;43379;48.160;14.036;2022-10-22T14:56:51;17.90;99.90
57552;DHT22;43379;48.160;14.036;2022-10-22T14:59:16;17.90;99.90
57552;DHT22;43379;48.160;14.036;2022-10-22T15:01:42;17.90;99.90
57552;DHT22;43379;48.160;14.036;2022-10-22T15:04:08;18.00;99.90
57552;DHT22;43379;48.160;14.036;2022-10-22T15:06:34;17.90;99.90
57552;DHT22;43379;48.160;14.036;2022-10-22T15:09:00;17.90;99.90
57552;DHT22;43379;48.160;14.036;2022-10-22T15:11:26;17.80;99.90
57552;DHT22;43379;48.160;14.036;2022-10-22T15:13:52;17.80;99.90
57552;DHT22;43379;48.160;14.036;2022-10-22T15:16:18;17.80;99.90
57552;DHT22;43379;48.160;14.036;2022-10-22T15:18:43;17.70;99.90
57552;DHT22;43379;48.160;14.036;2022-10-22T15:21:15;17.70;99.90
57552;DHT22;43379;48.160;14.036;2022-10-22T15:23:40;17.70;99.90
57552;DHT22;43379;48.160;14.036;2022-10-22T15:26:10;17.60;99.90
57552;DHT22;43379;48.160;14.036;2022-10-22T15:28:37;17.60;99.90
57552;DHT22;43379;48.160;14.036;2022-10-22T15:31:04;17.50;99.90
57552;DHT22;43379;48.160;14.036;2022-10-22T15:33:29;17.50;99.90
57552;DHT22;43379;48.160;14.036;2022-10-22T15:35:56;17.50;99.90
57552;DHT22;43379;48.160;14.036;2022-10-22T15:38:26;17.40;99.90
57552;DHT22;43379;48.160;14.036;2022-10-22T15:41:00;17.40;99.90
57552;DHT22;43379;48.160;14.036;2022-10-22T15:43:26;17.30;99.90
57552;DHT22;43379;48.160;14.036;2022-10-22T15:46:08;17.30;99.90
57552;DHT22;43379;48.160;14.036;2022-10-22T15:48:34;17.20;99.90
57552;DHT22;43379;48.160;14.036;2022-10-22T15:50:59;17.20;99.90
57552;DHT22;43379;48.160;14.036;2022-10-22T15:53:25;17.10;99.90
57552;DHT22;43379;48.160;14.036;2022-10-22T15:55:51;17.10;99.90
57552;DHT22;43379;48.160;14.036;2022-10-22T15:58:16;17.10;99.90
57552;DHT22;43379;48.160;14.036;2022-10-22T16:00:42;17.00;99.90
57552;DHT22;43379;48.160;14.036;2022-10-22T16:03:08;17.00;99.90
57552;DHT22;43379;48.160;14.036;2022-10-22T16:05:33;17.00;99.90
57552;DHT22;43379;48.160;14.036;2022-10-22T16:07:59;16.90;99.90
57552;DHT22;43379;48.160;14.036;2022-10-22T16:10:24;16.90;99.90
57552;DHT22;43379;48.160;14.036;2022-10-22T16:12:52;16.80;99.90
57552;DHT22;43379;48.160;14.036;2022-10-22T16:15:19;16.80;99.90
57552;DHT22;43379;48.160;14.036;2022-10-22T16:17:45;16.70;99.90
57552;DHT22;43379;48.160;14.036;2022-10-22T16:20:10;16.70;99.90
57552;DHT22;43379;48.160;14.036;2022-10-22T16:22:36;16.70;99.90
57552;DHT22;43379;48.160;14.036;2022-10-22T16:25:02;16.60;99.90
57552;DHT22;43379;48.160;14.036;2022-10-22T16:27:27;16.50;99.90
57552;DHT22;43379;48.160;14.036;2022-10-22T16:29:53;16.40;99.90
57552;DHT22;43379;48.160;14.036;2022-10-22T16:32:19;16.30;99.90
57552;DHT22;43379;48.160;14.036;2022-10-22T16:34:44;16.30;99.90
57552;DHT22;43379;48.160;14.036;2022-10-22T16:37:10;16.20;99.90
57552;DHT22;43379;48.160;14.036;2022-10-22T16:39:36;16.10;99.90
57552;DHT22;43379;48.160;14.036;2022-10-22T16:42:01;16.00;99.90
57552;DHT22;43379;48.160;14.036;2022-10-22T16:44:28;16.00;99.90
57552;DHT22;43379;48.160;14.036;2022-10-22T16:46:53;15.90;99.90
57552;DHT22;43379;48.160;14.036;2022-10-22T16:49:19;15.90;99.90
57552;DHT22;43379;48.160;14.036;2022-10-22T16:51:45;15.80;99.90
57552;DHT22;43379;48.160;14.036;2022-10-22T16:54:11;15.80;99.90
57552;DHT22;43379;48.160;14.036;2022-10-22T16:56:36;15.70;99.90
57552;DHT22;43379;48.160;14.036;2022-10-22T16:59:02;15.60;99.90
57552;DHT22;43379;48.160;14.036;2022-10-22T17:01:28;15.50;99.90
57552;DHT22;43379;48.160;14.036;2022-10-22T17:03:54;15.40;99.90
57552;DHT22;43379;48.160;14.036;2022-10-22T17:06:22;15.40;99.90